createdAt,value
2022-12-19T00:01:58.444Z,0.54
2022-12-19T00:04:26.322Z,0.47
2022-12-19T00:06:54.166Z,0.57
2022-12-19T00:09:21.853Z,0.64
2022-12-19T00:11:49.669Z,0.74
2022-12-19T00:14:18.948Z,0.79
2022-12-19T00:16:47.037Z,0.71
2022-12-19T00:19:15.554Z,0.68
2022-12-19T00:21:43.278Z,0.73
2022-12-19T00:24:21.369Z,0.75
2022-12-19T00:26:50.438Z,0.72
2022-12-19T00:29:19.716Z,0.73
2022-12-19T00:31:47.548Z,0.77
2022-12-19T00:34:15.896Z,0.74
2022-12-19T00:36:44.032Z,0.82
2022-12-19T00:39:11.990Z,0.88
2022-12-19T00:41:42.008Z,0.86
2022-12-19T00:44:15.868Z,0.84
2022-12-19T00:46:52.626Z,0.83
2022-12-19T00:49:21.184Z,0.82
2022-12-19T00:51:49.277Z,0.87
2022-12-19T00:54:16.962Z,0.92
2022-12-19T00:56:44.753Z,0.94
2022-12-19T00:59:13.629Z,0.93
2022-12-19T01:01:46.657Z,1.00
2022-12-19T01:04:34.361Z,1.04
2022-12-19T01:07:05.727Z,1.06
2022-12-19T01:09:34.798Z,1.10
2022-12-19T01:12:20.983Z,1.18
2022-12-19T01:14:53.818Z,1.10
2022-12-19T01:17:23.769Z,1.14
2022-12-19T01:19:51.449Z,1.17
2022-12-19T01:22:19.378Z,1.18
2022-12-19T01:24:47.407Z,1.17
2022-12-19T01:27:17.987Z,1.14
2022-12-19T01:29:51.958Z,1.16
2022-12-19T01:32:20.406Z,1.22
2022-12-19T01:34:49.437Z,1.23
2022-12-19T01:37:20.735Z,1.23
2022-12-19T01:39:48.498Z,1.24
2022-12-19T01:42:19.655Z,1.26
2022-12-19T01:45:21.008Z,1.21
2022-12-19T01:47:53.675Z,1.22
2022-12-19T01:50:28.207Z,1.11
2022-12-19T01:52:57.658Z,1.09
2022-12-19T01:55:25.697Z,1.18
2022-12-19T01:57:54.760Z,1.24
2022-12-19T02:00:22.882Z,1.27
2022-12-19T02:03:00.269Z,1.30
2022-12-19T02:05:29.824Z,1.34
2022-12-19T02:07:57.635Z,1.39
2022-12-19T02:10:25.327Z,1.34
2022-12-19T02:12:53.264Z,1.36
2022-12-19T02:15:24.251Z,1.36
2022-12-19T02:18:09.063Z,1.37
2022-12-19T02:21:18.461Z,1.39
2022-12-19T02:24:51.238Z,1.31
2022-12-19T02:28:01.419Z,1.33
2022-12-19T02:31:01.389Z,1.32
2022-12-19T02:33:42.370Z,1.34
2022-12-19T02:36:17.418Z,1.34
2022-12-19T02:38:54.811Z,1.37
2022-12-19T02:41:26.856Z,1.46
2022-12-19T02:43:59.256Z,1.47
2022-12-19T02:46:30.683Z,1.46
2022-12-19T02:48:59.444Z,1.40
2022-12-19T02:51:27.106Z,1.28
2022-12-19T02:53:54.912Z,1.17
2022-12-19T02:56:41.823Z,1.23
2022-12-19T02:59:21.506Z,1.32
2022-12-19T03:01:56.927Z,1.37
2022-12-19T03:04:37.078Z,1.42
2022-12-19T03:07:13.992Z,1.43
2022-12-19T03:09:49.999Z,1.41
2022-12-19T03:12:23.404Z,1.40
2022-12-19T03:14:53.127Z,1.30
2022-12-19T03:17:22.416Z,1.23
2022-12-19T03:19:50.240Z,1.35
2022-12-19T03:22:18.082Z,1.36
2022-12-19T03:24:45.745Z,1.41
2022-12-19T03:27:21.628Z,1.44
2022-12-19T03:29:55.530Z,1.48
2022-12-19T03:32:26.272Z,1.52
2022-12-19T03:34:58.804Z,1.47
2022-12-19T03:37:30.822Z,1.43
2022-12-19T03:40:04.019Z,1.42
2022-12-19T03:42:51.871Z,1.45
2022-12-19T03:45:27.014Z,1.44
2022-12-19T03:48:00.582Z,1.34
2022-12-19T03:50:34.003Z,1.31
2022-12-19T03:53:11.506Z,1.37
2022-12-19T03:55:44.611Z,1.38
2022-12-19T03:58:18.207Z,1.37
2022-12-19T04:00:49.376Z,1.41
2022-12-19T04:03:20.071Z,1.44
2022-12-19T04:05:48.786Z,1.47
2022-12-19T04:08:17.403Z,1.49
2022-12-19T04:10:50.462Z,1.47
2022-12-19T04:13:24.130Z,1.53
2022-12-19T04:16:01.256Z,1.51
2022-12-19T04:18:31.309Z,1.47
2022-12-19T04:21:03.609Z,1.38
2022-12-19T04:23:35.420Z,1.35
2022-12-19T04:26:05.721Z,1.35
2022-12-19T04:28:37.942Z,1.33
2022-12-19T04:31:06.919Z,1.28
2022-12-19T04:33:35.995Z,1.22
2022-12-19T04:36:03.749Z,1.19
2022-12-19T04:38:31.736Z,1.13
2022-12-19T04:40:59.401Z,1.11
2022-12-19T04:43:27.093Z,1.07
2022-12-19T04:46:04.559Z,1.11
2022-12-19T04:48:32.319Z,1.13
2022-12-19T04:51:01.349Z,1.17
2022-12-19T04:53:29.086Z,1.17
2022-12-19T04:56:02.054Z,1.19
2022-12-19T04:58:29.792Z,1.16
2022-12-19T05:01:02.061Z,1.14
2022-12-19T05:03:29.826Z,1.12
2022-12-19T05:06:06.843Z,1.20
2022-12-19T05:08:34.874Z,1.24
2022-12-19T05:11:03.414Z,1.31
2022-12-19T05:13:31.134Z,1.31
2022-12-19T05:15:59.719Z,1.33
2022-12-19T05:18:27.873Z,1.39
2022-12-19T05:20:55.655Z,1.43
2022-12-19T05:23:24.935Z,1.45
2022-12-19T05:25:52.904Z,1.39
2022-12-19T05:28:20.990Z,1.42
2022-12-19T05:30:52.272Z,1.44
2022-12-19T05:33:20.388Z,1.45
2022-12-19T05:35:49.392Z,1.47
2022-12-19T05:38:17.069Z,1.57
2022-12-19T05:40:48.512Z,1.65
2022-12-19T05:43:16.484Z,1.69
2022-12-19T05:45:44.171Z,1.79
2022-12-19T05:48:11.985Z,1.89
2022-12-19T05:50:39.740Z,1.86
2022-12-19T05:53:07.497Z,1.73
2022-12-19T05:55:35.313Z,1.68
2022-12-19T05:58:04.413Z,1.65
2022-12-19T06:00:32.155Z,1.66
2022-12-19T06:03:00.054Z,1.60
2022-12-19T06:05:27.915Z,1.49
2022-12-19T06:07:55.930Z,1.42
2022-12-19T06:10:23.717Z,1.46
2022-12-19T06:12:51.554Z,1.50
2022-12-19T06:15:20.690Z,1.49
2022-12-19T06:17:48.368Z,1.54
2022-12-19T06:20:16.223Z,1.60
2022-12-19T06:22:44.126Z,1.58
2022-12-19T06:25:14.714Z,1.55
2022-12-19T06:27:42.417Z,1.58
2022-12-19T06:30:10.995Z,1.64
2022-12-19T06:32:41.092Z,1.74
2022-12-19T06:35:09.379Z,1.87
2022-12-19T06:37:39.517Z,1.93
2022-12-19T06:40:28.792Z,2.03
2022-12-19T06:42:55.462Z,2.06
2022-12-19T06:45:23.244Z,2.00
2022-12-19T06:47:52.452Z,1.90
2022-12-19T06:50:20.120Z,1.77
2022-12-19T06:52:47.708Z,1.77
2022-12-19T06:55:15.522Z,1.81
2022-12-19T06:57:46.381Z,1.79
2022-12-19T07:00:14.942Z,1.74
2022-12-19T07:02:46.983Z,1.79
2022-12-19T07:05:16.211Z,1.78
2022-12-19T07:07:43.920Z,1.76
2022-12-19T07:10:12.311Z,1.73
2022-12-19T07:12:40.168Z,1.70
2022-12-19T07:15:08.530Z,1.72
2022-12-19T07:17:40.018Z,1.73
2022-12-19T07:20:08.822Z,1.75
2022-12-19T07:22:38.482Z,1.75
2022-12-19T07:25:07.341Z,1.83
2022-12-19T07:27:36.461Z,1.91
2022-12-19T07:30:05.613Z,2.19
2022-12-19T07:32:33.325Z,2.20
2022-12-19T07:35:01.086Z,2.26
2022-12-19T07:37:28.773Z,2.32
2022-12-19T07:39:57.828Z,2.35
2022-12-19T07:42:32.090Z,2.37
2022-12-19T07:45:01.375Z,2.42
2022-12-19T07:47:29.097Z,2.35
2022-12-19T07:49:56.733Z,2.33
2022-12-19T07:52:24.760Z,2.35
2022-12-19T07:54:52.575Z,2.36
2022-12-19T07:57:21.667Z,2.35
2022-12-19T07:59:49.379Z,2.42
2022-12-19T08:02:17.409Z,2.46
2022-12-19T08:04:45.183Z,2.51
2022-12-19T08:07:12.852Z,2.45
2022-12-19T08:09:40.574Z,2.44
2022-12-19T08:12:08.574Z,2.49
2022-12-19T08:14:37.592Z,2.58
2022-12-19T08:17:20.598Z,2.57
2022-12-19T08:19:48.819Z,2.58
2022-12-19T08:22:17.320Z,2.57
2022-12-19T08:24:45.055Z,2.61
2022-12-19T08:27:12.882Z,2.56
2022-12-19T08:29:41.868Z,2.44
2022-12-19T08:32:09.519Z,2.45
2022-12-19T08:34:37.235Z,2.41
2022-12-19T08:37:04.958Z,2.51
2022-12-19T08:39:32.710Z,2.60
2022-12-19T08:42:00.814Z,2.56
2022-12-19T08:44:28.491Z,2.47
2022-12-19T08:46:57.648Z,2.42
2022-12-19T08:49:25.366Z,2.45
2022-12-19T08:51:53.040Z,2.47
2022-12-19T08:54:20.692Z,2.50
2022-12-19T08:56:48.503Z,2.55
2022-12-19T08:59:24.218Z,2.67
2022-12-19T09:02:01.610Z,2.67
2022-12-19T09:05:57.239Z,2.57
2022-12-19T09:07:18.364Z,2.58
2022-12-19T09:09:46.085Z,2.51
2022-12-19T09:12:15.237Z,2.58
2022-12-19T09:14:44.093Z,2.58
2022-12-19T09:17:13.668Z,2.60
2022-12-19T09:19:45.543Z,2.55
2022-12-19T09:22:16.009Z,2.56
2022-12-19T09:24:43.732Z,2.57
2022-12-19T09:27:11.475Z,2.72
2022-12-19T09:29:39.530Z,2.89
2022-12-19T09:32:07.318Z,2.95
2022-12-19T09:34:38.464Z,3.00
2022-12-19T09:37:07.667Z,3.07
2022-12-19T09:39:36.025Z,3.00
2022-12-19T09:42:22.148Z,3.03
2022-12-19T09:45:31.650Z,2.95
2022-12-19T09:48:01.249Z,2.86
2022-12-19T09:50:40.575Z,2.92
2022-12-19T09:53:17.315Z,3.03
2022-12-19T09:55:45.773Z,3.07
2022-12-19T09:58:21.323Z,3.17
2022-12-19T10:00:56.474Z,3.17
2022-12-19T10:03:33.521Z,3.11
2022-12-19T10:07:07.784Z,3.05
2022-12-19T10:11:19.336Z,2.95
2022-12-19T10:12:46.249Z,2.92
2022-12-19T10:15:13.918Z,2.80
2022-12-19T10:17:59.116Z,2.76
2022-12-19T10:20:31.173Z,2.78
2022-12-19T10:23:13.660Z,2.80
2022-12-19T10:25:52.533Z,2.79
2022-12-19T10:28:50.053Z,2.81
2022-12-19T10:31:22.694Z,2.96
2022-12-19T10:33:57.240Z,3.04
2022-12-19T10:36:48.864Z,3.12
2022-12-19T10:39:26.306Z,3.23
2022-12-19T10:42:00.480Z,3.31
2022-12-19T10:44:32.687Z,3.25
2022-12-19T10:47:00.382Z,3.17
2022-12-19T10:49:29.505Z,3.10
2022-12-19T10:52:02.249Z,3.03
2022-12-19T10:54:43.924Z,2.99
2022-12-19T10:57:25.723Z,3.00
2022-12-19T10:59:59.165Z,3.11
2022-12-19T11:02:44.459Z,3.23
2022-12-19T11:05:25.149Z,3.36
2022-12-19T11:08:04.321Z,3.42
2022-12-19T11:12:03.614Z,3.50
2022-12-19T11:20:26.262Z,3.48
2022-12-19T11:20:48.408Z,3.55
2022-12-19T11:29:31.094Z,3.38
2022-12-19T11:29:33.972Z,3.47
2022-12-19T11:30:08.858Z,3.43
2022-12-19T11:30:36.673Z,3.33
2022-12-19T11:31:51.429Z,3.49
2022-12-19T11:33:39.465Z,3.56
2022-12-19T11:36:08.844Z,3.61
2022-12-19T11:38:41.989Z,3.66
2022-12-19T11:41:18.264Z,3.75
2022-12-19T11:43:54.956Z,3.81
2022-12-19T11:46:40.643Z,3.81
2022-12-19T11:49:18.219Z,3.84
2022-12-19T11:51:53.691Z,3.89
2022-12-19T11:54:28.203Z,3.93
2022-12-19T11:56:57.422Z,3.88
2022-12-19T11:59:36.346Z,3.91
2022-12-19T12:02:23.820Z,3.81
2022-12-19T12:05:36.994Z,3.78
2022-12-19T12:10:39.720Z,3.75
2022-12-19T12:15:56.889Z,3.67
2022-12-19T12:24:01.069Z,3.63
2022-12-19T12:31:27.172Z,3.73
2022-12-19T12:31:27.720Z,3.70
2022-12-19T12:31:56.044Z,3.71
2022-12-19T12:31:57.248Z,3.70
2022-12-19T12:32:02.997Z,3.76
2022-12-19T12:35:33.435Z,3.85
2022-12-19T12:38:31.694Z,3.94
2022-12-19T12:41:11.265Z,4.00
2022-12-19T12:44:07.376Z,4.06
2022-12-19T12:46:40.688Z,4.06
2022-12-19T12:49:25.184Z,4.09
2022-12-19T12:51:56.690Z,4.09
2022-12-19T12:54:29.647Z,4.06
2022-12-19T12:56:57.370Z,3.98
2022-12-19T12:59:26.899Z,3.96
2022-12-19T13:01:56.839Z,3.87
2022-12-19T13:04:33.803Z,3.77
2022-12-19T13:07:29.944Z,3.74
2022-12-19T13:10:19.082Z,3.72
2022-12-19T13:13:06.886Z,3.77
2022-12-19T13:15:40.226Z,3.81
2022-12-19T13:18:16.586Z,3.85
2022-12-19T13:20:49.213Z,3.88
2022-12-19T13:23:33.425Z,4.02
2022-12-19T13:26:01.199Z,3.95
2022-12-19T13:28:43.313Z,3.97
2022-12-19T13:31:23.121Z,3.97
2022-12-19T13:34:12.463Z,3.93
2022-12-19T13:39:49.155Z,3.96
2022-12-19T13:39:55.428Z,3.91
2022-12-19T13:42:59.424Z,3.93
2022-12-19T13:45:39.702Z,3.86
2022-12-19T13:48:20.681Z,3.84
2022-12-19T13:50:49.710Z,3.83
2022-12-19T13:53:20.947Z,3.79
2022-12-19T13:55:50.046Z,3.82
2022-12-19T13:58:28.948Z,3.81
2022-12-19T14:01:04.220Z,3.76
2022-12-19T14:03:39.542Z,3.82
2022-12-19T14:06:16.910Z,3.83
2022-12-19T14:09:58.682Z,3.76
2022-12-19T14:12:05.616Z,3.76
2022-12-19T14:14:47.920Z,3.73
2022-12-19T14:17:17.442Z,3.73
2022-12-19T14:19:47.590Z,3.75
2022-12-19T14:22:25.801Z,3.79
2022-12-19T14:25:33.411Z,3.77
2022-12-19T14:28:27.103Z,3.86
2022-12-19T14:30:42.985Z,3.76
2022-12-19T14:33:43.421Z,3.75
2022-12-19T14:36:14.652Z,3.81
2022-12-19T14:39:22.990Z,3.95
2022-12-19T14:42:01.857Z,3.98
2022-12-19T14:51:51.662Z,3.97
2022-12-19T14:52:34.729Z,3.91
2022-12-19T14:54:15.329Z,3.92
2022-12-19T14:54:39.881Z,3.84
2022-12-19T14:56:52.058Z,3.87
2022-12-19T14:59:02.452Z,3.84
2022-12-19T15:01:33.262Z,3.87
2022-12-19T15:04:48.011Z,3.88
2022-12-19T15:07:08.951Z,3.79
2022-12-19T15:10:58.319Z,3.82
2022-12-19T15:14:47.390Z,3.90
2022-12-19T15:15:59.752Z,3.87
2022-12-19T15:18:30.496Z,3.84
2022-12-19T15:21:00.604Z,3.85
2022-12-19T15:23:29.065Z,3.90
2022-12-19T15:26:06.894Z,3.86
2022-12-19T15:28:40.031Z,3.84
2022-12-19T15:31:17.720Z,3.87
2022-12-19T15:34:14.435Z,3.83
2022-12-19T15:36:33.280Z,3.82
2022-12-19T15:39:00.947Z,3.83
2022-12-19T15:41:28.785Z,3.79
2022-12-19T15:44:05.353Z,3.79
2022-12-19T15:46:35.693Z,3.82
2022-12-19T15:49:03.491Z,3.87
2022-12-19T15:51:31.263Z,3.90
2022-12-19T15:54:15.528Z,3.91
2022-12-19T15:56:50.637Z,3.87
2022-12-19T15:59:31.199Z,3.88
2022-12-19T16:02:15.857Z,3.91
2022-12-19T16:04:44.191Z,3.90
2022-12-19T16:07:15.960Z,3.88
2022-12-19T16:09:43.666Z,3.82
2022-12-19T16:12:15.419Z,3.78
2022-12-19T16:14:46.332Z,3.76
2022-12-19T16:17:23.577Z,3.76
2022-12-19T16:19:51.842Z,3.76
2022-12-19T16:22:22.348Z,3.85
2022-12-19T16:24:50.893Z,3.85
2022-12-19T16:27:24.053Z,3.88
2022-12-19T16:29:52.450Z,3.83
2022-12-19T16:32:23.901Z,3.78
2022-12-19T16:34:52.660Z,3.78
2022-12-19T16:37:20.325Z,3.79
2022-12-19T16:39:48.189Z,3.77
2022-12-19T16:42:17.221Z,3.72
2022-12-19T16:44:46.351Z,3.69
2022-12-19T16:47:15.940Z,3.95
2022-12-19T16:49:45.652Z,3.91
2022-12-19T16:52:13.745Z,3.84
2022-12-19T16:54:41.432Z,3.79
2022-12-19T16:57:19.578Z,3.77
2022-12-19T16:59:47.436Z,3.70
2022-12-19T17:02:43.308Z,3.68
2022-12-19T17:05:24.901Z,3.68
2022-12-19T17:07:53.475Z,3.65
2022-12-19T17:10:26.439Z,3.70
2022-12-19T17:12:55.619Z,3.75
2022-12-19T17:15:27.463Z,3.68
2022-12-19T17:17:56.871Z,3.69
2022-12-19T17:20:28.462Z,3.66
2022-12-19T17:22:56.239Z,3.59
2022-12-19T17:25:26.291Z,3.58
2022-12-19T17:27:55.959Z,3.54
2022-12-19T17:30:25.359Z,3.54
2022-12-19T17:32:55.834Z,3.54
2022-12-19T17:35:28.793Z,3.59
2022-12-19T17:37:58.146Z,3.69
2022-12-19T17:40:27.614Z,3.77
2022-12-19T17:42:55.663Z,3.82
2022-12-19T17:45:24.446Z,3.87
2022-12-19T17:47:58.401Z,3.96
2022-12-19T17:50:38.643Z,4.01
2022-12-19T17:53:06.792Z,4.04
2022-12-19T17:55:34.493Z,4.11
2022-12-19T17:58:02.307Z,4.00
2022-12-19T18:00:33.066Z,3.95
2022-12-19T18:03:04.797Z,3.85
2022-12-19T18:05:36.838Z,3.92
2022-12-19T18:08:07.597Z,3.97
2022-12-19T18:10:35.319Z,4.02
2022-12-19T18:13:04.346Z,4.07
2022-12-19T18:15:32.322Z,4.13
2022-12-19T18:18:00.075Z,4.16
2022-12-19T18:20:32.566Z,4.18
2022-12-19T18:23:02.289Z,4.20
2022-12-19T18:25:32.053Z,4.23
2022-12-19T18:28:00.047Z,4.24
2022-12-19T18:30:27.866Z,4.24
2022-12-19T18:32:58.555Z,4.24
2022-12-19T18:35:32.465Z,4.15
2022-12-19T18:38:04.747Z,4.12
2022-12-19T18:40:32.684Z,4.04
2022-12-19T18:43:00.660Z,3.94
2022-12-19T18:45:34.779Z,3.90
2022-12-19T18:48:06.496Z,3.86
2022-12-19T18:50:34.299Z,3.83
2022-12-19T18:53:03.380Z,3.72
2022-12-19T18:55:32.508Z,3.62
2022-12-19T18:58:00.330Z,3.55
2022-12-19T19:00:29.198Z,3.57
2022-12-19T19:02:59.974Z,3.57
2022-12-19T19:05:30.285Z,3.60
2022-12-19T19:07:58.391Z,3.57
2022-12-19T19:10:29.725Z,3.59
2022-12-19T19:13:00.159Z,3.62
2022-12-19T19:15:33.813Z,3.66
2022-12-19T19:18:07.446Z,3.71
2022-12-19T19:20:38.952Z,3.81
2022-12-19T19:23:10.017Z,3.87
2022-12-19T19:25:39.154Z,3.96
2022-12-19T19:28:07.568Z,4.05
2022-12-19T19:30:38.089Z,4.07
2022-12-19T19:33:10.339Z,3.97
2022-12-19T19:35:38.694Z,3.83
2022-12-19T19:38:09.643Z,3.74
2022-12-19T19:40:39.148Z,3.67
2022-12-19T19:43:06.971Z,3.65
2022-12-19T19:45:41.176Z,3.62
2022-12-19T19:48:11.000Z,3.64
2022-12-19T19:50:38.724Z,3.69
2022-12-19T19:53:06.756Z,3.72
2022-12-19T19:55:34.675Z,3.82
2022-12-19T19:58:03.735Z,3.86
2022-12-19T20:00:31.471Z,3.92
2022-12-19T20:03:06.365Z,4.02
2022-12-19T20:05:36.264Z,4.11
2022-12-19T20:08:04.219Z,4.15
2022-12-19T20:10:31.930Z,4.13
2022-12-19T20:12:59.639Z,4.20
2022-12-19T20:15:28.827Z,4.26
2022-12-19T20:17:56.537Z,4.29
2022-12-19T20:20:24.795Z,4.31
2022-12-19T20:22:55.603Z,4.36
2022-12-19T20:25:23.521Z,4.41
2022-12-19T20:27:51.227Z,4.42
2022-12-19T20:30:19.129Z,4.42
2022-12-19T20:32:48.222Z,4.44
2022-12-19T20:35:16.303Z,4.31
2022-12-19T20:37:44.578Z,4.26
2022-12-19T20:40:13.008Z,4.29
2022-12-19T20:42:40.811Z,4.34
2022-12-19T20:45:09.274Z,4.36
2022-12-19T20:47:37.064Z,4.42
2022-12-19T20:50:09.756Z,4.45
2022-12-19T20:52:37.479Z,4.47
2022-12-19T20:55:05.827Z,4.51
2022-12-19T20:57:33.712Z,4.53
2022-12-19T21:00:01.448Z,4.52
2022-12-19T21:02:40.834Z,4.50
2022-12-19T21:05:19.722Z,4.50
2022-12-19T21:07:47.647Z,4.47
2022-12-19T21:10:15.416Z,4.36
2022-12-19T21:12:47.554Z,4.30
2022-12-19T21:15:15.895Z,4.31
2022-12-19T21:17:43.719Z,4.38
2022-12-19T21:20:12.342Z,4.45
2022-12-19T21:22:41.525Z,4.52
2022-12-19T21:25:10.134Z,4.57
2022-12-19T21:27:37.854Z,4.58
2022-12-19T21:30:06.631Z,4.53
2022-12-19T21:32:34.405Z,4.59
2022-12-19T21:35:02.101Z,4.63
2022-12-19T21:37:31.918Z,4.58
2022-12-19T21:40:01.002Z,4.40
2022-12-19T21:42:28.712Z,4.42
2022-12-19T21:44:56.444Z,4.44
2022-12-19T21:47:24.261Z,4.50
2022-12-19T21:49:51.980Z,4.52
2022-12-19T21:52:19.731Z,4.51
2022-12-19T21:54:47.457Z,4.48
2022-12-19T21:57:16.889Z,4.44
2022-12-19T21:59:44.819Z,4.49
2022-12-19T22:02:12.967Z,4.52
2022-12-19T22:04:40.767Z,4.57
2022-12-19T22:07:08.518Z,4.60
2022-12-19T22:09:36.285Z,4.64
2022-12-19T22:12:03.976Z,4.64
2022-12-19T22:14:33.031Z,4.68
2022-12-19T22:17:00.883Z,4.70
2022-12-19T22:19:28.562Z,4.70
2022-12-19T22:21:56.225Z,4.63
2022-12-19T22:24:25.279Z,4.59
2022-12-19T22:26:52.987Z,4.63
2022-12-19T22:29:20.647Z,4.61
2022-12-19T22:31:50.143Z,4.61
2022-12-19T22:34:20.881Z,4.62
2022-12-19T22:36:50.647Z,4.61
2022-12-19T22:39:20.232Z,4.57
2022-12-19T22:41:47.918Z,4.61
2022-12-19T22:44:18.393Z,4.65
2022-12-19T22:46:46.516Z,4.68
2022-12-19T22:49:16.050Z,4.69
2022-12-19T22:51:43.903Z,4.70
2022-12-19T22:54:12.310Z,4.71
2022-12-19T22:56:41.536Z,4.74
2022-12-19T22:59:11.733Z,4.73
2022-12-19T23:01:41.860Z,4.74
2022-12-19T23:04:12.397Z,4.70
2022-12-19T23:06:41.621Z,4.75
2022-12-19T23:09:12.290Z,4.80
2022-12-19T23:11:42.630Z,4.80
2022-12-19T23:14:13.513Z,4.78
2022-12-19T23:16:41.444Z,4.61
2022-12-19T23:19:10.532Z,4.56
2022-12-19T23:21:38.756Z,4.48
2022-12-19T23:24:17.189Z,4.47
2022-12-19T23:26:44.995Z,4.59
2022-12-19T23:29:15.300Z,4.63
2022-12-19T23:31:45.507Z,4.62
2022-12-19T23:34:14.293Z,4.69
2022-12-19T23:39:31.747Z,4.68
2022-12-19T23:41:59.782Z,4.74
2022-12-19T23:44:27.948Z,4.79
2022-12-19T23:47:02.720Z,4.75
2022-12-19T23:49:31.657Z,4.78
2022-12-19T23:51:59.370Z,4.81
2022-12-19T23:54:27.051Z,4.87
2022-12-19T23:56:56.110Z,4.79
2022-12-19T23:59:23.859Z,4.65
